Terminal Aerodrome Forecast
Issued by NWS Buffalo, NY

Home | Current Version | Previous Version | Text Only | Print | Product List | Glossary On
Versions: 1 2 3 4 5 6 7 8 9 10 11 12 13 14 15 16 17 18 19 20 21 22 23 24 25
600
FTUS41 KBUF 290907 AAA
TAFBUF
TAF AMD
KBUF 290907Z 2909/3006 34004KT P6SM SCT090 SCT250
     FM291000 03004KT P6SM BKN070
     FM291500 04009KT P6SM BKN070
     FM292000 03010KT P6SM FEW070 BKN250
     FM300500 08004KT P6SM BKN250=

USA.gov is the U.S. government's official web portal to all federal, state and local government web resources and services.